»·PEaware :: SKW3340 KMSO-KGEG

SKW3340 :: KMSO-KGEG

FLIGHT INFORMATION

Flight Status: Arrived
Operator:
SkyWest Airlines
More flights by this operator :: More flights under this callsign
Pilot: Paul K. (16555)
Aircraft: MCDONNELL-DOUGLAS MD-88
(MD88)
More flights by this aircraft type
Origin: KMSO Missoula Intl
United States
Destination: KGEG Spokane Intl
United States
More flights between these airports :: More routes between these airports
Route: DIDLY4 MLP HILIE2
File this flight plan on PilotEdge
Remarks:
Altitude:
(Current/Filed)
20,000ft
Speed:
(Current/Filed)
366kts
Departed: 23-Mar-18 06:30 PM
Arrived: 23-Mar-18 07:04 PM
Distance/Time
Traveled:
147nm/0:34
Distance/Time
To Go:
Arrived

Flight Plot

Page will automatically refresh every two minutes.

Flight plan parsing failed; only flown route is shown


Map Options




Map Legend


Flown Route
Filed Route
Departure Airport
Arrival Airport
Navaid (VOR, NDB)
Fix

Horizontal Profiles

Position Reports

Time Latitude Longitude Heading Altitude Ground
Speed
23-Mar-18 18:00 46.919739 -114.085043 168 3205ft 0kts
23-Mar-18 18:01 46.919739 -114.085043 168 3205ft 0kts
23-Mar-18 18:02 46.919739 -114.085043 168 3205ft 0kts
23-Mar-18 18:03 46.919739 -114.085043 168 3205ft 0kts
23-Mar-18 18:04 46.919739 -114.085043 168 3205ft 0kts
23-Mar-18 18:05 46.919739 -114.085043 168 3205ft 0kts
23-Mar-18 18:06 46.919739 -114.085043 168 3205ft 0kts
23-Mar-18 18:07 46.919739 -114.085043 168 3205ft 0kts
23-Mar-18 18:08 46.919739 -114.085043 168 3205ft 0kts
23-Mar-18 18:09 46.919739 -114.085043 168 3205ft 0kts
23-Mar-18 18:10 46.919739 -114.085043 168 3205ft 0kts
23-Mar-18 18:11 46.919739 -114.085043 168 3205ft 0kts
23-Mar-18 18:12 46.919739 -114.085043 168 3205ft 0kts
23-Mar-18 18:13 46.919739 -114.085043 168 3205ft 0kts
23-Mar-18 18:14 46.919739 -114.085043 168 3205ft 0kts
23-Mar-18 18:15 46.919739 -114.085043 168 3205ft 0kts
23-Mar-18 18:16 46.919739 -114.085043 168 3205ft 0kts
23-Mar-18 18:17 46.919909 -114.085094 168 3205ft 2kts
23-Mar-18 18:18 46.920492 -114.085273 168 3205ft 2kts
23-Mar-18 18:19 46.920642 -114.085319 168 3205ft 0kts
23-Mar-18 18:20 46.920642 -114.085319 168 3205ft 0kts
23-Mar-18 18:21 46.920642 -114.085319 168 3205ft 0kts
23-Mar-18 18:22 46.918882 -114.085610 180 3205ft 8kts
23-Mar-18 18:23 46.916469 -114.085785 183 3203ft 2kts
23-Mar-18 18:24 46.914069 -114.084475 130 3202ft 14kts
23-Mar-18 18:25 46.910984 -114.079166 130 3200ft 20kts
23-Mar-18 18:26 46.909168 -114.077193 180 3196ft 0kts
23-Mar-18 18:27 46.909168 -114.077193 180 3196ft 0kts
23-Mar-18 18:28 46.908216 -114.078234 307 3195ft 12kts
23-Mar-18 18:29 46.926554 -114.110065 309 4193ft 148kts
23-Mar-18 18:30 46.955890 -114.163505 307 6878ft 176kts
23-Mar-18 18:31 46.995739 -114.230306 308 8957ft 257kts
23-Mar-18 18:32 47.045323 -114.314087 305 11850ft 289kts
23-Mar-18 18:33 47.101137 -114.408222 305 13901ft 332kts
23-Mar-18 18:34 47.157487 -114.503892 306 13989ft 347kts
23-Mar-18 18:35 47.197210 -114.601297 284 15342ft 346kts
23-Mar-18 18:36 47.227510 -114.728381 284 17864ft 354kts
23-Mar-18 18:37 47.261245 -114.865548 284 19960ft 362kts
23-Mar-18 18:38 47.295593 -115.004148 284 19936ft 366kts
23-Mar-18 18:39 47.330787 -115.145394 284 19934ft 371kts
23-Mar-18 18:40 47.366435 -115.287788 284 19933ft 374kts
23-Mar-18 18:41 47.402417 -115.430785 284 19937ft 373kts
23-Mar-18 18:42 47.438391 -115.573060 284 19941ft 373kts
23-Mar-18 18:43 47.462135 -115.713515 267 19653ft 357kts
23-Mar-18 18:44 47.469223 -115.853333 268 18140ft 339kts
23-Mar-18 18:45 47.476642 -115.987918 269 16629ft 325kts
23-Mar-18 18:46 47.484040 -116.118528 269 15112ft 314kts
23-Mar-18 18:47 47.491341 -116.244703 269 13726ft 303kts
23-Mar-18 18:48 47.498441 -116.365509 270 12723ft 301kts
23-Mar-18 18:49 47.505875 -116.489499 270 11740ft 305kts
23-Mar-18 18:50 47.513567 -116.614236 270 11928ft 313kts
23-Mar-18 18:51 47.520754 -116.739362 269 12007ft 319kts
23-Mar-18 18:52 47.527536 -116.872157 269 12010ft 328kts
23-Mar-18 18:53 47.540594 -117.003781 299 12014ft 337kts
23-Mar-18 18:54 47.609074 -117.094982 314 10601ft 314kts
23-Mar-18 18:55 47.670052 -117.170635 314 9216ft 273kts
23-Mar-18 18:56 47.726946 -117.241335 314 7742ft 262kts
23-Mar-18 18:57 47.775505 -117.315053 273 7004ft 235kts
23-Mar-18 18:58 47.736999 -117.365869 194 5995ft 189kts
23-Mar-18 18:59 47.705109 -117.400476 234 4576ft 136kts
23-Mar-18 19:00 47.679688 -117.445819 227 3872ft 150kts
23-Mar-18 19:01 47.651806 -117.486671 227 2912ft 139kts
23-Mar-18 19:02 47.626899 -117.524692 227 2346ft 95kts
23-Mar-18 19:03 47.620047 -117.537265 256 2359ft 0kts
23-Mar-18 19:04 47.621153 -117.537473 44 2359ft 8kts
23-Mar-18 19:05 47.623893 -117.536442 34 2358ft 0kts

Navigation Log

Ident Type
Flight plan parsing failed, navigation log unavailable